Terminal Aerodrome Forecast
Issued by NWS Cleveland, OH

Home | Current Version | Previous Version | Text Only | Print | Product List | Glossary Off
Versions: 1 2 3 4 5 6 7 8 9 10 11 12 13

000
FTUS41 KCLE 271135
TAFCAK
TAF
KCAK 271135Z 2712/2812 VRB03KT 6SM BR SCT025 OVC050
      TEMPO 2713/2716 BKN025
     FM280100 VRB03KT P6SM SCT250
      TEMPO 2810/2812 3SM BR=

USA.gov is the U.S. government's official web portal to all federal, state and local government web resources and services.